sensor_id;sensor_type;location;lat;lon;timestamp;P1;durP1;ratioP1;P2;durP2;ratioP2
26050;SDS011;13825;53.496;10.020;2023-04-24T00:00:19;7.30;;;5.20;;
26050;SDS011;13825;53.496;10.020;2023-04-24T00:02:46;6.57;;;4.97;;
26050;SDS011;13825;53.496;10.020;2023-04-24T00:05:13;5.93;;;4.83;;
26050;SDS011;13825;53.496;10.020;2023-04-24T00:07:42;6.37;;;4.80;;
26050;SDS011;13825;53.496;10.020;2023-04-24T00:10:10;6.77;;;5.00;;
26050;SDS011;13825;53.496;10.020;2023-04-24T00:12:38;6.73;;;5.20;;
26050;SDS011;13825;53.496;10.020;2023-04-24T00:15:05;7.57;;;4.60;;
26050;SDS011;13825;53.496;10.020;2023-04-24T00:17:33;6.07;;;4.70;;
26050;SDS011;13825;53.496;10.020;2023-04-24T00:20:00;5.77;;;4.40;;
26050;SDS011;13825;53.496;10.020;2023-04-24T00:22:29;5.80;;;4.70;;
26050;SDS011;13825;53.496;10.020;2023-04-24T00:24:58;6.90;;;4.63;;
26050;SDS011;13825;53.496;10.020;2023-04-24T00:27:25;6.10;;;4.40;;
26050;SDS011;13825;53.496;10.020;2023-04-24T00:29:52;5.07;;;4.10;;
26050;SDS011;13825;53.496;10.020;2023-04-24T00:32:19;6.03;;;4.27;;
26050;SDS011;13825;53.496;10.020;2023-04-24T00:34:46;8.03;;;4.37;;
26050;SDS011;13825;53.496;10.020;2023-04-24T00:37:14;7.13;;;3.90;;
26050;SDS011;13825;53.496;10.020;2023-04-24T00:39:41;4.70;;;4.07;;
26050;SDS011;13825;53.496;10.020;2023-04-24T00:42:09;5.37;;;4.33;;
26050;SDS011;13825;53.496;10.020;2023-04-24T00:44:36;6.93;;;4.57;;
26050;SDS011;13825;53.496;10.020;2023-04-24T00:47:04;6.73;;;4.30;;
26050;SDS011;13825;53.496;10.020;2023-04-24T00:49:31;6.43;;;4.43;;
26050;SDS011;13825;53.496;10.020;2023-04-24T00:51:58;5.87;;;4.20;;
26050;SDS011;13825;53.496;10.020;2023-04-24T00:54:25;7.00;;;4.57;;
26050;SDS011;13825;53.496;10.020;2023-04-24T00:56:51;6.23;;;4.87;;
26050;SDS011;13825;53.496;10.020;2023-04-24T00:59:20;5.10;;;3.93;;
26050;SDS011;13825;53.496;10.020;2023-04-24T01:01:47;6.57;;;4.77;;
26050;SDS011;13825;53.496;10.020;2023-04-24T01:04:14;5.70;;;4.47;;
26050;SDS011;13825;53.496;10.020;2023-04-24T01:06:43;5.80;;;4.60;;
26050;SDS011;13825;53.496;10.020;2023-04-24T01:09:11;6.63;;;4.70;;
26050;SDS011;13825;53.496;10.020;2023-04-24T01:11:39;5.70;;;4.10;;
26050;SDS011;13825;53.496;10.020;2023-04-24T01:14:08;6.40;;;4.87;;
26050;SDS011;13825;53.496;10.020;2023-04-24T01:16:36;6.90;;;4.50;;
26050;SDS011;13825;53.496;10.020;2023-04-24T01:19:04;5.30;;;4.20;;
26050;SDS011;13825;53.496;10.020;2023-04-24T01:21:32;4.47;;;3.93;;
26050;SDS011;13825;53.496;10.020;2023-04-24T01:24:03;4.57;;;4.07;;
26050;SDS011;13825;53.496;10.020;2023-04-24T01:26:31;5.33;;;3.77;;
26050;SDS011;13825;53.496;10.020;2023-04-24T01:28:58;6.60;;;4.23;;
26050;SDS011;13825;53.496;10.020;2023-04-24T01:31:25;4.30;;;3.90;;
26050;SDS011;13825;53.496;10.020;2023-04-24T01:33:52;5.80;;;4.33;;
26050;SDS011;13825;53.496;10.020;2023-04-24T01:36:20;4.43;;;3.83;;
26050;SDS011;13825;53.496;10.020;2023-04-24T01:38:48;4.33;;;3.57;;
26050;SDS011;13825;53.496;10.020;2023-04-24T01:41:17;5.10;;;3.53;;
26050;SDS011;13825;53.496;10.020;2023-04-24T01:43:44;4.40;;;3.43;;
26050;SDS011;13825;53.496;10.020;2023-04-24T01:46:10;5.17;;;3.80;;
26050;SDS011;13825;53.496;10.020;2023-04-24T01:48:38;4.90;;;3.60;;
26050;SDS011;13825;53.496;10.020;2023-04-24T01:51:05;3.97;;;3.10;;
26050;SDS011;13825;53.496;10.020;2023-04-24T01:53:31;5.77;;;3.30;;
26050;SDS011;13825;53.496;10.020;2023-04-24T01:55:58;4.53;;;3.63;;
26050;SDS011;13825;53.496;10.020;2023-04-24T01:58:27;5.23;;;3.40;;
26050;SDS011;13825;53.496;10.020;2023-04-24T02:00:55;3.93;;;3.33;;
26050;SDS011;13825;53.496;10.020;2023-04-24T02:03:23;3.30;;;2.83;;
26050;SDS011;13825;53.496;10.020;2023-04-24T02:05:51;4.73;;;3.17;;
26050;SDS011;13825;53.496;10.020;2023-04-24T02:08:18;4.23;;;3.07;;
26050;SDS011;13825;53.496;10.020;2023-04-24T02:10:45;3.83;;;2.87;;
26050;SDS011;13825;53.496;10.020;2023-04-24T02:13:12;4.37;;;3.00;;
26050;SDS011;13825;53.496;10.020;2023-04-24T02:15:42;3.30;;;2.97;;
26050;SDS011;13825;53.496;10.020;2023-04-24T02:18:09;4.00;;;3.00;;
26050;SDS011;13825;53.496;10.020;2023-04-24T02:20:37;3.27;;;2.80;;
26050;SDS011;13825;53.496;10.020;2023-04-24T02:23:04;3.00;;;2.70;;
26050;SDS011;13825;53.496;10.020;2023-04-24T02:25:31;4.17;;;2.87;;
26050;SDS011;13825;53.496;10.020;2023-04-24T02:27:59;2.90;;;2.60;;
26050;SDS011;13825;53.496;10.020;2023-04-24T02:30:27;3.57;;;2.80;;
26050;SDS011;13825;53.496;10.020;2023-04-24T02:32:55;3.07;;;2.77;;
26050;SDS011;13825;53.496;10.020;2023-04-24T02:35:22;3.13;;;2.50;;
26050;SDS011;13825;53.496;10.020;2023-04-24T02:37:49;3.17;;;2.70;;
26050;SDS011;13825;53.496;10.020;2023-04-24T02:40:16;2.30;;;2.00;;
26050;SDS011;13825;53.496;10.020;2023-04-24T02:42:43;2.53;;;2.33;;
26050;SDS011;13825;53.496;10.020;2023-04-24T02:45:10;2.67;;;2.20;;
26050;SDS011;13825;53.496;10.020;2023-04-24T02:47:37;3.90;;;2.60;;
26050;SDS011;13825;53.496;10.020;2023-04-24T02:50:06;2.23;;;1.97;;
26050;SDS011;13825;53.496;10.020;2023-04-24T02:52:34;2.63;;;2.10;;
26050;SDS011;13825;53.496;10.020;2023-04-24T02:55:01;3.33;;;2.40;;
26050;SDS011;13825;53.496;10.020;2023-04-24T02:57:28;1.87;;;1.70;;
26050;SDS011;13825;53.496;10.020;2023-04-24T02:59:54;5.40;;;1.80;;
26050;SDS011;13825;53.496;10.020;2023-04-24T03:02:21;2.67;;;1.70;;
26050;SDS011;13825;53.496;10.020;2023-04-24T03:04:48;2.00;;;1.80;;
26050;SDS011;13825;53.496;10.020;2023-04-24T03:07:17;2.87;;;2.00;;
26050;SDS011;13825;53.496;10.020;2023-04-24T03:09:45;2.23;;;1.90;;
26050;SDS011;13825;53.496;10.020;2023-04-24T03:12:12;1.90;;;1.70;;
26050;SDS011;13825;53.496;10.020;2023-04-24T03:14:39;2.30;;;1.80;;
26050;SDS011;13825;53.496;10.020;2023-04-24T03:17:06;2.37;;;1.93;;
26050;SDS011;13825;53.496;10.020;2023-04-24T03:19:33;2.03;;;1.73;;
26050;SDS011;13825;53.496;10.020;2023-04-24T03:22:01;1.93;;;1.73;;
26050;SDS011;13825;53.496;10.020;2023-04-24T03:24:30;1.97;;;1.60;;
26050;SDS011;13825;53.496;10.020;2023-04-24T03:26:57;2.33;;;1.83;;
26050;SDS011;13825;53.496;10.020;2023-04-24T03:29:25;2.93;;;1.80;;
26050;SDS011;13825;53.496;10.020;2023-04-24T03:31:52;1.70;;;1.53;;
26050;SDS011;13825;53.496;10.020;2023-04-24T03:34:19;1.87;;;1.70;;
26050;SDS011;13825;53.496;10.020;2023-04-24T03:36:46;2.23;;;2.00;;
26050;SDS011;13825;53.496;10.020;2023-04-24T03:39:13;1.80;;;1.57;;
26050;SDS011;13825;53.496;10.020;2023-04-24T03:41:42;2.23;;;1.90;;
26050;SDS011;13825;53.496;10.020;2023-04-24T03:44:09;2.33;;;1.70;;
26050;SDS011;13825;53.496;10.020;2023-04-24T03:46:36;2.23;;;1.70;;
26050;SDS011;13825;53.496;10.020;2023-04-24T03:49:03;2.70;;;2.00;;
26050;SDS011;13825;53.496;10.020;2023-04-24T03:51:30;3.53;;;1.90;;
26050;SDS011;13825;53.496;10.020;2023-04-24T03:53:57;1.80;;;1.70;;
26050;SDS011;13825;53.496;10.020;2023-04-24T03:56:24;1.90;;;1.70;;
26050;SDS011;13825;53.496;10.020;2023-04-24T03:58:52;1.87;;;1.70;;
26050;SDS011;13825;53.496;10.020;2023-04-24T04:01:19;2.40;;;1.60;;
26050;SDS011;13825;53.496;10.020;2023-04-24T04:03:47;2.00;;;1.60;;
26050;SDS011;13825;53.496;10.020;2023-04-24T04:06:14;2.07;;;1.70;;
26050;SDS011;13825;53.496;10.020;2023-04-24T04:08:41;2.10;;;1.80;;
26050;SDS011;13825;53.496;10.020;2023-04-24T04:11:08;8.00;;;2.13;;
26050;SDS011;13825;53.496;10.020;2023-04-24T04:13:35;1.87;;;1.67;;
26050;SDS011;13825;53.496;10.020;2023-04-24T04:16:14;2.03;;;1.60;;
26050;SDS011;13825;53.496;10.020;2023-04-24T04:18:42;2.27;;;1.53;;
26050;SDS011;13825;53.496;10.020;2023-04-24T04:21:09;2.60;;;1.90;;
26050;SDS011;13825;53.496;10.020;2023-04-24T04:23:37;2.00;;;1.80;;
26050;SDS011;13825;53.496;10.020;2023-04-24T04:26:04;2.60;;;1.63;;
26050;SDS011;13825;53.496;10.020;2023-04-24T04:28:33;1.67;;;1.50;;
26050;SDS011;13825;53.496;10.020;2023-04-24T04:31:01;2.13;;;1.67;;
26050;SDS011;13825;53.496;10.020;2023-04-24T04:33:29;1.90;;;1.47;;
26050;SDS011;13825;53.496;10.020;2023-04-24T04:35:57;4.17;;;1.73;;
26050;SDS011;13825;53.496;10.020;2023-04-24T04:38:25;2.17;;;1.87;;
26050;SDS011;13825;53.496;10.020;2023-04-24T04:40:54;2.93;;;1.70;;
26050;SDS011;13825;53.496;10.020;2023-04-24T04:43:23;1.77;;;1.47;;
26050;SDS011;13825;53.496;10.020;2023-04-24T04:45:50;2.63;;;1.87;;
26050;SDS011;13825;53.496;10.020;2023-04-24T04:48:19;1.77;;;1.67;;
26050;SDS011;13825;53.496;10.020;2023-04-24T04:50:48;1.90;;;1.53;;
26050;SDS011;13825;53.496;10.020;2023-04-24T04:53:16;1.70;;;1.60;;
26050;SDS011;13825;53.496;10.020;2023-04-24T04:55:44;1.40;;;1.30;;
26050;SDS011;13825;53.496;10.020;2023-04-24T04:58:11;1.60;;;1.40;;
26050;SDS011;13825;53.496;10.020;2023-04-24T05:00:38;1.73;;;1.40;;
26050;SDS011;13825;53.496;10.020;2023-04-24T05:03:06;1.20;;;1.10;;
26050;SDS011;13825;53.496;10.020;2023-04-24T05:05:33;2.03;;;1.40;;
26050;SDS011;13825;53.496;10.020;2023-04-24T05:08:07;1.53;;;1.30;;
26050;SDS011;13825;53.496;10.020;2023-04-24T05:10:34;1.93;;;1.37;;
26050;SDS011;13825;53.496;10.020;2023-04-24T05:13:02;1.50;;;1.40;;
26050;SDS011;13825;53.496;10.020;2023-04-24T05:15:29;1.83;;;1.20;;
26050;SDS011;13825;53.496;10.020;2023-04-24T05:17:56;1.40;;;1.20;;
26050;SDS011;13825;53.496;10.020;2023-04-24T05:20:25;1.50;;;1.40;;
26050;SDS011;13825;53.496;10.020;2023-04-24T05:22:55;1.30;;;1.20;;
26050;SDS011;13825;53.496;10.020;2023-04-24T05:25:23;1.40;;;1.27;;
26050;SDS011;13825;53.496;10.020;2023-04-24T05:27:50;1.20;;;1.10;;
26050;SDS011;13825;53.496;10.020;2023-04-24T05:30:18;1.20;;;1.10;;
26050;SDS011;13825;53.496;10.020;2023-04-24T05:32:45;1.13;;;1.10;;
26050;SDS011;13825;53.496;10.020;2023-04-24T05:35:12;1.97;;;1.40;;
26050;SDS011;13825;53.496;10.020;2023-04-24T05:37:39;1.47;;;1.27;;
26050;SDS011;13825;53.496;10.020;2023-04-24T05:40:07;1.10;;;1.00;;
26050;SDS011;13825;53.496;10.020;2023-04-24T05:42:36;1.77;;;1.30;;
26050;SDS011;13825;53.496;10.020;2023-04-24T05:45:04;2.73;;;1.10;;
26050;SDS011;13825;53.496;10.020;2023-04-24T05:47:32;1.10;;;1.00;;
26050;SDS011;13825;53.496;10.020;2023-04-24T05:49:59;1.17;;;1.07;;
26050;SDS011;13825;53.496;10.020;2023-04-24T05:52:26;1.00;;;1.00;;
26050;SDS011;13825;53.496;10.020;2023-04-24T05:54:53;1.00;;;1.00;;
26050;SDS011;13825;53.496;10.020;2023-04-24T05:57:20;1.30;;;1.20;;
26050;SDS011;13825;53.496;10.020;2023-04-24T05:59:48;1.40;;;1.30;;
26050;SDS011;13825;53.496;10.020;2023-04-24T06:02:16;1.30;;;1.20;;
26050;SDS011;13825;53.496;10.020;2023-04-24T06:04:43;1.30;;;1.20;;
26050;SDS011;13825;53.496;10.020;2023-04-24T06:07:11;1.60;;;1.50;;
26050;SDS011;13825;53.496;10.020;2023-04-24T06:09:38;1.67;;;1.37;;
26050;SDS011;13825;53.496;10.020;2023-04-24T06:12:05;1.50;;;1.30;;
26050;SDS011;13825;53.496;10.020;2023-04-24T06:14:33;1.40;;;1.30;;
26050;SDS011;13825;53.496;10.020;2023-04-24T06:17:03;2.27;;;1.50;;
26050;SDS011;13825;53.496;10.020;2023-04-24T06:19:30;2.03;;;1.37;;
26050;SDS011;13825;53.496;10.020;2023-04-24T06:21:57;1.87;;;1.43;;
26050;SDS011;13825;53.496;10.020;2023-04-24T06:24:27;1.50;;;1.40;;
26050;SDS011;13825;53.496;10.020;2023-04-24T06:26:54;1.80;;;1.70;;
26050;SDS011;13825;53.496;10.020;2023-04-24T06:29:22;3.67;;;1.77;;
26050;SDS011;13825;53.496;10.020;2023-04-24T06:31:49;1.90;;;1.53;;
26050;SDS011;13825;53.496;10.020;2023-04-24T06:34:17;1.40;;;1.30;;
26050;SDS011;13825;53.496;10.020;2023-04-24T06:36:46;1.97;;;1.73;;
26050;SDS011;13825;53.496;10.020;2023-04-24T06:39:13;1.77;;;1.67;;
26050;SDS011;13825;53.496;10.020;2023-04-24T06:41:40;1.50;;;1.30;;
26050;SDS011;13825;53.496;10.020;2023-04-24T06:44:07;1.83;;;1.40;;
26050;SDS011;13825;53.496;10.020;2023-04-24T06:46:34;2.33;;;1.87;;
26050;SDS011;13825;53.496;10.020;2023-04-24T06:49:01;2.00;;;1.73;;
26050;SDS011;13825;53.496;10.020;2023-04-24T06:51:29;1.70;;;1.50;;
26050;SDS011;13825;53.496;10.020;2023-04-24T06:53:58;1.93;;;1.70;;
26050;SDS011;13825;53.496;10.020;2023-04-24T06:56:25;2.37;;;2.17;;
26050;SDS011;13825;53.496;10.020;2023-04-24T06:58:54;4.23;;;1.90;;
26050;SDS011;13825;53.496;10.020;2023-04-24T07:01:21;2.17;;;1.93;;
26050;SDS011;13825;53.496;10.020;2023-04-24T07:03:48;2.83;;;2.23;;
26050;SDS011;13825;53.496;10.020;2023-04-24T07:06:18;2.20;;;2.00;;
26050;SDS011;13825;53.496;10.020;2023-04-24T07:08:49;2.70;;;2.10;;
26050;SDS011;13825;53.496;10.020;2023-04-24T07:11:15;1.80;;;1.70;;
26050;SDS011;13825;53.496;10.020;2023-04-24T07:13:43;2.10;;;1.90;;
26050;SDS011;13825;53.496;10.020;2023-04-24T07:16:10;3.60;;;2.00;;
26050;SDS011;13825;53.496;10.020;2023-04-24T07:18:37;2.37;;;2.13;;
26050;SDS011;13825;53.496;10.020;2023-04-24T07:21:54;3.33;;;2.10;;
26050;SDS011;13825;53.496;10.020;2023-04-24T07:53:05;3.03;;;2.67;;
26050;SDS011;13825;53.496;10.020;2023-04-24T07:55:32;3.40;;;2.97;;
26050;SDS011;13825;53.496;10.020;2023-04-24T07:57:59;4.10;;;3.37;;
26050;SDS011;13825;53.496;10.020;2023-04-24T08:00:26;3.40;;;2.97;;
26050;SDS011;13825;53.496;10.020;2023-04-24T08:02:53;3.67;;;3.07;;
26050;SDS011;13825;53.496;10.020;2023-04-24T08:05:28;3.17;;;2.87;;
26050;SDS011;13825;53.496;10.020;2023-04-24T08:07:55;4.50;;;2.90;;
26050;SDS011;13825;53.496;10.020;2023-04-24T08:10:24;3.70;;;3.07;;
26050;SDS011;13825;53.496;10.020;2023-04-24T08:12:51;4.83;;;3.40;;
26050;SDS011;13825;53.496;10.020;2023-04-24T08:15:18;3.67;;;3.27;;
26050;SDS011;13825;53.496;10.020;2023-04-24T08:17:48;3.80;;;2.90;;
26050;SDS011;13825;53.496;10.020;2023-04-24T08:20:15;3.27;;;2.83;;
26050;SDS011;13825;53.496;10.020;2023-04-24T08:22:42;3.97;;;3.27;;
26050;SDS011;13825;53.496;10.020;2023-04-24T08:25:13;4.13;;;3.10;;
26050;SDS011;13825;53.496;10.020;2023-04-24T08:27:44;4.13;;;3.20;;
26050;SDS011;13825;53.496;10.020;2023-04-24T08:30:16;4.97;;;3.73;;
26050;SDS011;13825;53.496;10.020;2023-04-24T08:32:45;4.60;;;3.40;;
26050;SDS011;13825;53.496;10.020;2023-04-24T08:35:12;4.10;;;3.57;;
26050;SDS011;13825;53.496;10.020;2023-04-24T08:37:39;7.10;;;4.13;;
26050;SDS011;13825;53.496;10.020;2023-04-24T08:40:10;5.40;;;3.90;;
26050;SDS011;13825;53.496;10.020;2023-04-24T08:42:44;4.53;;;3.70;;
26050;SDS011;13825;53.496;10.020;2023-04-24T08:45:12;5.13;;;4.00;;
26050;SDS011;13825;53.496;10.020;2023-04-24T08:47:39;4.07;;;3.67;;
26050;SDS011;13825;53.496;10.020;2023-04-24T08:50:07;4.97;;;4.17;;
26050;SDS011;13825;53.496;10.020;2023-04-24T08:52:35;5.73;;;4.13;;
26050;SDS011;13825;53.496;10.020;2023-04-24T08:55:02;5.00;;;3.60;;
26050;SDS011;13825;53.496;10.020;2023-04-24T08:57:29;4.93;;;3.33;;
26050;SDS011;13825;53.496;10.020;2023-04-24T08:59:59;4.17;;;3.50;;
26050;SDS011;13825;53.496;10.020;2023-04-24T09:02:28;4.83;;;2.93;;
26050;SDS011;13825;53.496;10.020;2023-04-24T09:04:57;4.47;;;3.30;;
26050;SDS011;13825;53.496;10.020;2023-04-24T09:07:24;5.00;;;3.37;;
26050;SDS011;13825;53.496;10.020;2023-04-24T09:09:53;4.70;;;3.40;;
26050;SDS011;13825;53.496;10.020;2023-04-24T09:12:21;4.23;;;3.60;;
26050;SDS011;13825;53.496;10.020;2023-04-24T09:14:48;4.00;;;3.40;;
26050;SDS011;13825;53.496;10.020;2023-04-24T09:17:18;4.07;;;3.47;;
26050;SDS011;13825;53.496;10.020;2023-04-24T09:19:45;5.97;;;3.53;;
26050;SDS011;13825;53.496;10.020;2023-04-24T09:22:12;4.53;;;3.83;;
26050;SDS011;13825;53.496;10.020;2023-04-24T09:24:41;6.23;;;4.10;;
26050;SDS011;13825;53.496;10.020;2023-04-24T09:27:08;5.80;;;3.90;;
26050;SDS011;13825;53.496;10.020;2023-04-24T09:29:39;4.97;;;4.07;;
26050;SDS011;13825;53.496;10.020;2023-04-24T09:32:25;5.23;;;3.50;;
26050;SDS011;13825;53.496;10.020;2023-04-24T09:35:07;4.53;;;3.33;;
26050;SDS011;13825;53.496;10.020;2023-04-24T09:37:36;4.07;;;3.53;;
26050;SDS011;13825;53.496;10.020;2023-04-24T09:40:07;4.53;;;3.87;;
26050;SDS011;13825;53.496;10.020;2023-04-24T09:42:36;6.23;;;4.70;;
26050;SDS011;13825;53.496;10.020;2023-04-24T09:45:04;4.80;;;3.83;;
26050;SDS011;13825;53.496;10.020;2023-04-24T09:47:39;6.07;;;3.93;;
26050;SDS011;13825;53.496;10.020;2023-04-24T09:50:10;5.23;;;3.93;;
26050;SDS011;13825;53.496;10.020;2023-04-24T09:52:42;4.77;;;3.93;;
26050;SDS011;13825;53.496;10.020;2023-04-24T09:55:11;5.50;;;4.40;;
26050;SDS011;13825;53.496;10.020;2023-04-24T09:57:46;5.93;;;4.57;;
26050;SDS011;13825;53.496;10.020;2023-04-24T10:00:17;5.53;;;4.40;;
26050;SDS011;13825;53.496;10.020;2023-04-24T10:02:50;5.30;;;4.07;;
26050;SDS011;13825;53.496;10.020;2023-04-24T10:05:22;4.77;;;3.93;;
26050;SDS011;13825;53.496;10.020;2023-04-24T10:07:50;6.33;;;4.90;;
26050;SDS011;13825;53.496;10.020;2023-04-24T10:10:17;4.93;;;4.27;;
26050;SDS011;13825;53.496;10.020;2023-04-24T10:12:44;6.40;;;5.07;;
26050;SDS011;13825;53.496;10.020;2023-04-24T10:15:13;6.73;;;4.93;;
26050;SDS011;13825;53.496;10.020;2023-04-24T10:17:47;7.30;;;5.33;;
26050;SDS011;13825;53.496;10.020;2023-04-24T10:20:19;7.03;;;4.83;;
26050;SDS011;13825;53.496;10.020;2023-04-24T10:22:47;9.73;;;5.53;;
26050;SDS011;13825;53.496;10.020;2023-04-24T10:25:19;7.97;;;5.50;;
26050;SDS011;13825;53.496;10.020;2023-04-24T10:27:47;9.10;;;5.83;;
26050;SDS011;13825;53.496;10.020;2023-04-24T10:30:16;8.30;;;6.17;;
26050;SDS011;13825;53.496;10.020;2023-04-24T10:32:43;7.77;;;6.00;;
26050;SDS011;13825;53.496;10.020;2023-04-24T10:35:11;7.53;;;5.60;;
26050;SDS011;13825;53.496;10.020;2023-04-24T10:37:42;10.33;;;6.60;;
26050;SDS011;13825;53.496;10.020;2023-04-24T10:40:11;9.73;;;6.17;;
26050;SDS011;13825;53.496;10.020;2023-04-24T10:42:43;11.83;;;6.67;;
26050;SDS011;13825;53.496;10.020;2023-04-24T10:45:17;8.70;;;6.30;;
26050;SDS011;13825;53.496;10.020;2023-04-24T10:47:52;10.77;;;6.80;;
26050;SDS011;13825;53.496;10.020;2023-04-24T10:50:23;11.47;;;6.33;;
26050;SDS011;13825;53.496;10.020;2023-04-24T10:52:53;9.50;;;6.67;;
26050;SDS011;13825;53.496;10.020;2023-04-24T10:58:09;9.10;;;5.93;;
26050;SDS011;13825;53.496;10.020;2023-04-24T11:00:37;8.30;;;6.23;;
26050;SDS011;13825;53.496;10.020;2023-04-24T11:03:04;6.10;;;5.10;;
26050;SDS011;13825;53.496;10.020;2023-04-24T11:05:48;8.17;;;5.30;;
26050;SDS011;13825;53.496;10.020;2023-04-24T11:08:22;6.70;;;5.77;;
26050;SDS011;13825;53.496;10.020;2023-04-24T11:10:56;11.97;;;6.47;;
26050;SDS011;13825;53.496;10.020;2023-04-24T11:13:24;8.33;;;7.03;;
26050;SDS011;13825;53.496;10.020;2023-04-24T11:18:38;7.70;;;5.57;;
26050;SDS011;13825;53.496;10.020;2023-04-24T11:21:10;7.77;;;5.50;;
26050;SDS011;13825;53.496;10.020;2023-04-24T11:23:39;10.23;;;5.57;;
26050;SDS011;13825;53.496;10.020;2023-04-24T11:26:10;10.17;;;6.67;;
26050;SDS011;13825;53.496;10.020;2023-04-24T11:28:38;9.30;;;5.90;;
26050;SDS011;13825;53.496;10.020;2023-04-24T11:34:05;6.83;;;5.33;;
26050;SDS011;13825;53.496;10.020;2023-04-24T11:36:36;6.27;;;5.17;;
26050;SDS011;13825;53.496;10.020;2023-04-24T11:39:05;8.57;;;5.03;;
26050;SDS011;13825;53.496;10.020;2023-04-24T11:41:32;6.60;;;4.70;;
26050;SDS011;13825;53.496;10.020;2023-04-24T11:44:00;7.37;;;4.97;;
26050;SDS011;13825;53.496;10.020;2023-04-24T11:46:30;7.30;;;5.03;;
26050;SDS011;13825;53.496;10.020;2023-04-24T11:48:58;6.53;;;4.60;;
26050;SDS011;13825;53.496;10.020;2023-04-24T11:51:26;6.00;;;4.90;;
26050;SDS011;13825;53.496;10.020;2023-04-24T11:53:53;6.70;;;4.80;;
26050;SDS011;13825;53.496;10.020;2023-04-24T11:56:22;5.77;;;4.00;;
26050;SDS011;13825;53.496;10.020;2023-04-24T11:58:51;5.83;;;4.43;;
26050;SDS011;13825;53.496;10.020;2023-04-24T12:01:19;6.53;;;4.30;;
26050;SDS011;13825;53.496;10.020;2023-04-24T12:03:48;6.37;;;3.83;;
26050;SDS011;13825;53.496;10.020;2023-04-24T12:06:17;4.70;;;4.20;;
26050;SDS011;13825;53.496;10.020;2023-04-24T12:08:48;5.07;;;3.47;;
26050;SDS011;13825;53.496;10.020;2023-04-24T12:11:23;5.33;;;3.80;;
26050;SDS011;13825;53.496;10.020;2023-04-24T12:13:53;8.30;;;4.00;;
26050;SDS011;13825;53.496;10.020;2023-04-24T12:16:21;5.87;;;4.33;;
26050;SDS011;13825;53.496;10.020;2023-04-24T12:18:48;4.87;;;4.17;;
26050;SDS011;13825;53.496;10.020;2023-04-24T12:21:18;6.70;;;4.20;;
26050;SDS011;13825;53.496;10.020;2023-04-24T12:23:45;9.93;;;6.00;;
26050;SDS011;13825;53.496;10.020;2023-04-24T12:26:15;7.57;;;4.77;;
26050;SDS011;13825;53.496;10.020;2023-04-24T12:28:46;5.17;;;4.40;;
26050;SDS011;13825;53.496;10.020;2023-04-24T12:31:14;9.43;;;5.77;;
26050;SDS011;13825;53.496;10.020;2023-04-24T12:33:41;6.30;;;4.60;;
26050;SDS011;13825;53.496;10.020;2023-04-24T12:36:09;6.00;;;4.33;;
26050;SDS011;13825;53.496;10.020;2023-04-24T12:38:38;5.93;;;4.60;;
26050;SDS011;13825;53.496;10.020;2023-04-24T12:41:07;6.13;;;4.13;;
26050;SDS011;13825;53.496;10.020;2023-04-24T12:43:35;6.23;;;4.17;;
26050;SDS011;13825;53.496;10.020;2023-04-24T12:46:04;4.40;;;3.67;;
26050;SDS011;13825;53.496;10.020;2023-04-24T12:48:35;3.90;;;3.50;;
26050;SDS011;13825;53.496;10.020;2023-04-24T12:51:02;4.30;;;3.63;;
26050;SDS011;13825;53.496;10.020;2023-04-24T12:53:29;6.17;;;3.33;;
26050;SDS011;13825;53.496;10.020;2023-04-24T12:55:56;4.27;;;3.30;;
26050;SDS011;13825;53.496;10.020;2023-04-24T12:58:23;3.50;;;3.20;;
26050;SDS011;13825;53.496;10.020;2023-04-24T13:00:50;3.43;;;3.03;;
26050;SDS011;13825;53.496;10.020;2023-04-24T13:03:19;5.00;;;3.53;;
26050;SDS011;13825;53.496;10.020;2023-04-24T13:05:47;4.40;;;3.80;;
26050;SDS011;13825;53.496;10.020;2023-04-24T13:08:14;6.93;;;3.57;;
26050;SDS011;13825;53.496;10.020;2023-04-24T13:10:41;4.67;;;3.60;;
26050;SDS011;13825;53.496;10.020;2023-04-24T13:13:08;4.20;;;3.50;;
26050;SDS011;13825;53.496;10.020;2023-04-24T13:15:35;4.77;;;3.70;;
26050;SDS011;13825;53.496;10.020;2023-04-24T13:18:02;4.80;;;3.70;;
26050;SDS011;13825;53.496;10.020;2023-04-24T13:20:31;4.37;;;3.40;;
26050;SDS011;13825;53.496;10.020;2023-04-24T13:23:00;5.17;;;3.33;;
26050;SDS011;13825;53.496;10.020;2023-04-24T13:25:27;4.63;;;3.83;;
26050;SDS011;13825;53.496;10.020;2023-04-24T13:27:54;4.20;;;3.80;;
26050;SDS011;13825;53.496;10.020;2023-04-24T13:30:21;4.13;;;3.60;;
26050;SDS011;13825;53.496;10.020;2023-04-24T13:32:48;3.80;;;3.00;;
26050;SDS011;13825;53.496;10.020;2023-04-24T13:35:15;3.90;;;3.50;;
26050;SDS011;13825;53.496;10.020;2023-04-24T13:37:44;3.80;;;3.40;;
26050;SDS011;13825;53.496;10.020;2023-04-24T13:40:12;3.90;;;3.50;;
26050;SDS011;13825;53.496;10.020;2023-04-24T13:42:39;3.97;;;3.50;;
26050;SDS011;13825;53.496;10.020;2023-04-24T13:45:07;4.17;;;3.60;;
26050;SDS011;13825;53.496;10.020;2023-04-24T13:47:35;4.03;;;3.37;;
26050;SDS011;13825;53.496;10.020;2023-04-24T13:50:02;4.73;;;3.53;;
26050;SDS011;13825;53.496;10.020;2023-04-24T13:52:29;3.80;;;3.37;;
26050;SDS011;13825;53.496;10.020;2023-04-24T13:54:58;4.03;;;3.63;;
26050;SDS011;13825;53.496;10.020;2023-04-24T13:57:25;3.90;;;3.37;;
26050;SDS011;13825;53.496;10.020;2023-04-24T13:59:53;3.73;;;3.33;;
26050;SDS011;13825;53.496;10.020;2023-04-24T14:02:20;3.90;;;3.33;;
26050;SDS011;13825;53.496;10.020;2023-04-24T14:04:47;4.83;;;3.83;;
26050;SDS011;13825;53.496;10.020;2023-04-24T14:07:14;4.20;;;3.50;;
26050;SDS011;13825;53.496;10.020;2023-04-24T14:09:41;4.83;;;4.00;;
26050;SDS011;13825;53.496;10.020;2023-04-24T14:12:10;6.23;;;3.80;;
26050;SDS011;13825;53.496;10.020;2023-04-24T14:14:37;3.57;;;3.20;;
26050;SDS011;13825;53.496;10.020;2023-04-24T14:17:04;4.37;;;3.90;;
26050;SDS011;13825;53.496;10.020;2023-04-24T14:19:31;4.23;;;3.63;;
26050;SDS011;13825;53.496;10.020;2023-04-24T14:21:59;3.97;;;3.50;;
26050;SDS011;13825;53.496;10.020;2023-04-24T14:24:26;3.97;;;3.13;;
26050;SDS011;13825;53.496;10.020;2023-04-24T14:26:53;3.40;;;3.10;;
26050;SDS011;13825;53.496;10.020;2023-04-24T14:29:22;3.93;;;3.20;;
26050;SDS011;13825;53.496;10.020;2023-04-24T14:31:51;2.97;;;2.53;;
26050;SDS011;13825;53.496;10.020;2023-04-24T14:34:18;2.53;;;2.20;;
26050;SDS011;13825;53.496;10.020;2023-04-24T14:36:44;4.03;;;3.10;;
26050;SDS011;13825;53.496;10.020;2023-04-24T14:39:11;2.63;;;2.37;;
26050;SDS011;13825;53.496;10.020;2023-04-24T14:41:38;2.80;;;2.47;;
26050;SDS011;13825;53.496;10.020;2023-04-24T14:57:57;4.70;;;3.53;;
26050;SDS011;13825;53.496;10.020;2023-04-24T15:11:31;5.10;;;4.07;;
26050;SDS011;13825;53.496;10.020;2023-04-24T15:14:30;4.93;;;3.77;;
26050;SDS011;13825;53.496;10.020;2023-04-24T15:17:07;5.70;;;4.07;;
26050;SDS011;13825;53.496;10.020;2023-04-24T15:19:34;5.50;;;3.47;;
26050;SDS011;13825;53.496;10.020;2023-04-24T15:22:01;5.00;;;4.00;;
26050;SDS011;13825;53.496;10.020;2023-04-24T15:24:28;5.90;;;3.37;;
26050;SDS011;13825;53.496;10.020;2023-04-24T15:26:55;5.00;;;3.47;;
26050;SDS011;13825;53.496;10.020;2023-04-24T15:29:22;3.53;;;2.40;;
26050;SDS011;13825;53.496;10.020;2023-04-24T15:31:50;3.03;;;2.27;;
26050;SDS011;13825;53.496;10.020;2023-04-24T15:34:17;3.23;;;2.17;;
26050;SDS011;13825;53.496;10.020;2023-04-24T15:36:44;1.77;;;1.60;;
26050;SDS011;13825;53.496;10.020;2023-04-24T15:39:11;2.57;;;2.00;;
26050;SDS011;13825;53.496;10.020;2023-04-24T15:41:38;2.50;;;1.97;;